Terminal Aerodrome Forecast
Issued by NWS

Home | Current Version | Previous Version | Graphics & Text | Print | Product List | Glossary On
Versions: 1 2 3 4 5 6 7 8 9 10 11 12 13 14 15 16 17 18 19
000
FTUS43 KGRB 151723
TAFATW
TAF
KATW 151723Z 1518/1618 05005KT 2SM -SN SCT010 OVC030
      TEMPO 1519/1521 1SM -SN OVC010
     FM152100 04008KT 2SM -SN OVC015
     FM160200 02008KT 3SM -SN OVC015
     FM160800 36008KT P6SM -SN BKN020 OVC035
     FM161400 34008KT P6SM SCT020 OVC035=

USA.gov is the U.S. government's official web portal to all federal, state and local government web resources and services.